Time;durP1;ratioP1;P1;durP2;ratioP2;P2;SDS_P1;SDS_P2;PMS_P1;PMS_P2;Temp;Humidity;BMP_temperature;BMP_pressure;BME280_temperature;BME280_humidity;BME280_pressure;Samples;Min_cycle;Max_cycle;Signal;HPM_P1;HPM_P2
2024/01/01 00:00:05;;;;;;;17.90;7.65;;;;;;;7.76;76.33;98609.50;332219;29;18074;-78
2024/01/01 00:00:17;;;;;;;15.55;7.00;;;;;;;7.76;76.28;98609.50;333370;29;5388;-76
2024/01/01 00:00:29;;;;;;;15.93;6.50;;;;;;;7.79;76.42;98612.84;331747;29;16611;-76
2024/01/01 00:00:41;;;;;;;14.30;5.72;;;;;;;7.91;76.06;98613.28;334681;29;4503;-75
2024/01/01 00:00:53;;;;;;;15.55;5.90;;;;;;;7.94;75.86;98608.81;335149;29;4560;-76
2024/01/01 00:01:06;;;;;;;13.63;5.80;;;;;;;7.95;75.42;98600.16;332134;29;18204;-76
2024/01/01 00:01:18;;;;;;;15.52;6.07;;;;;;;7.97;75.34;98619.06;334490;29;5071;-76
2024/01/01 00:01:40;;;;;;;15.05;5.47;;;;;;;7.95;75.48;98607.91;332311;29;17834;-76
2024/01/01 00:01:55;;;;;;;11.52;5.10;;;;;;;7.92;75.42;98610.59;327132;29;16838;-76
2024/01/01 00:02:07;;;;;;;11.95;5.63;;;;;;;7.97;75.63;98613.03;332313;29;17805;-77
2024/01/01 00:02:19;;;;;;;12.75;6.18;;;;;;;7.95;75.27;98613.09;331895;29;16096;-76
2024/01/01 00:02:31;;;;;;;14.52;6.95;;;;;;;7.99;75.58;98616.41;333835;29;4660;-76
2024/01/01 00:02:43;;;;;;;13.75;6.93;;;;;;;8.06;75.22;98606.66;334952;29;4549;-76
2024/01/01 00:02:55;;;;;;;12.13;6.05;;;;;;;8.11;75.04;98609.88;330005;29;18013;-76
2024/01/01 00:03:08;;;;;;;8.43;4.53;;;;;;;8.18;74.80;98611.34;332762;29;5830;-76
2024/01/01 00:03:20;;;;;;;8.57;4.35;;;;;;;8.19;74.58;98611.28;330823;28;13287;-77
2024/01/01 00:03:32;;;;;;;9.30;4.63;;;;;;;8.19;74.48;98613.03;331621;29;17158;-76
2024/01/01 00:03:44;;;;;;;8.25;4.38;;;;;;;8.14;74.82;98599.44;332578;29;4818;-77
2024/01/01 00:03:56;;;;;;;7.22;3.88;;;;;;;8.16;74.62;98608.81;329646;29;18059;-76
2024/01/01 00:04:09;;;;;;;6.03;3.33;;;;;;;8.09;74.32;98611.69;332320;29;4552;-76
2024/01/01 00:04:24;;;;;;;6.63;3.50;;;;;;;8.09;74.35;98607.38;330238;29;17799;-77
2024/01/01 00:04:36;;;;;;;10.88;4.28;;;;;;;8.13;74.47;98597.72;330310;29;18620;-76
2024/01/01 00:04:48;;;;;;;12.90;4.97;;;;;;;8.16;74.43;98602.78;328852;29;5523;-76
2024/01/01 00:05:00;;;;;;;9.70;4.57;;;;;;;8.19;74.32;98597.50;331010;29;16599;-76
2024/01/01 00:05:12;;;;;;;7.13;3.70;;;;;;;8.22;74.07;98612.91;333674;29;5164;-76
2024/01/01 00:05:24;;;;;;;5.88;3.22;;;;;;;8.22;74.05;98607.72;334472;29;4550;-76
2024/01/01 00:05:36;;;;;;;4.45;2.90;;;;;;;8.18;74.21;98621.69;332430;28;18312;-76
2024/01/01 00:05:49;;;;;;;4.63;2.72;;;;;;;8.22;74.00;98607.72;335089;29;4708;-76
2024/01/01 00:06:02;;;;;;;5.90;2.70;;;;;;;8.21;74.05;98600.88;332661;28;19117;-75
2024/01/01 00:06:14;;;;;;;6.43;2.95;;;;;;;8.25;74.03;98606.75;336129;28;5170;-77
2024/01/01 00:06:26;;;;;;;5.97;3.13;;;;;;;8.26;73.96;98609.28;331087;28;4909;-76
2024/01/01 00:06:41;;;;;;;5.22;2.65;;;;;;;8.34;73.88;98616.75;328558;29;5318;-75
2024/01/01 00:06:53;;;;;;;5.35;2.53;;;;;;;8.31;73.72;98609.97;335741;29;4664;-76
2024/01/01 00:07:05;;;;;;;5.78;2.92;;;;;;;8.25;74.06;98611.94;335897;29;5496;-76
2024/01/01 00:07:17;;;;;;;5.00;3.20;;;;;;;8.20;74.08;98614.72;333022;29;18258;-76
2024/01/01 00:07:29;;;;;;;5.45;3.08;;;;;;;8.23;74.06;98599.06;335826;29;5150;-76
2024/01/01 00:07:41;;;;;;;7.10;3.00;;;;;;;8.23;74.08;98604.25;335940;29;16527;-77
2024/01/01 00:07:53;;;;;;;8.07;3.20;;;;;;;8.26;74.12;98592.91;328847;28;18248;-77
2024/01/01 00:08:06;;;;;;;6.55;3.30;;;;;;;8.26;74.46;98609.28;335168;28;5467;-75
2024/01/01 00:08:19;;;;;;;6.10;2.88;;;;;;;8.21;74.13;98603.47;331555;28;18172;-75
2024/01/01 00:08:31;;;;;;;5.72;2.67;;;;;;;8.20;74.37;98619.88;335419;28;4614;-75
2024/01/01 00:08:43;;;;;;;6.07;2.53;;;;;;;8.23;74.61;98614.59;332478;28;18084;-76
2024/01/01 00:08:55;;;;;;;5.25;2.58;;;;;;;8.19;74.62;98607.88;335003;28;5342;-76
2024/01/01 00:09:07;;;;;;;4.97;2.35;;;;;;;8.16;74.47;98610.56;332229;28;18118;-76
2024/01/01 00:09:19;;;;;;;5.55;2.40;;;;;;;8.10;74.65;98616.81;330400;28;4621;-78
2024/01/01 00:09:31;;;;;;;5.82;2.10;;;;;;;8.12;74.54;98606.41;335490;28;4589;-77
2024/01/01 00:09:43;;;;;;;7.30;2.40;;;;;;;8.15;74.55;98627.00;332850;28;17620;-77
2024/01/01 00:09:55;;;;;;;6.55;2.33;;;;;;;8.25;74.22;98623.16;335080;28;4542;-77
2024/01/01 00:10:08;;;;;;;6.25;2.40;;;;;;;8.33;74.20;98608.16;332224;29;5257;-76
2024/01/01 00:10:20;;;;;;;5.53;2.03;;;;;;;8.33;74.00;98615.91;333751;29;4602;-78
2024/01/01 00:10:32;;;;;;;5.60;2.00;;;;;;;8.28;73.95;98617.84;335995;29;17878;-76
2024/01/01 00:10:45;;;;;;;3.88;2.13;;;;;;;8.23;74.43;98614.59;332004;28;18725;-76
2024/01/01 00:10:57;;;;;;;4.90;2.40;;;;;;;8.23;74.41;98616.34;333493;29;5432;-75
2024/01/01 00:11:09;;;;;;;4.90;2.50;;;;;;;8.20;74.35;98605.19;329108;29;12556;-75
2024/01/01 00:11:21;;;;;;;5.28;2.33;;;;;;;8.27;74.26;98603.22;331753;29;5498;-76
2024/01/01 00:11:35;;;;;;;4.78;2.33;;;;;;;8.37;74.29;98612.31;330724;29;12509;-75
2024/01/01 00:11:47;;;;;;;4.43;2.17;;;;;;;8.32;74.30;98614.22;333158;29;5367;-76
2024/01/01 00:11:59;;;;;;;3.85;1.95;;;;;;;8.28;74.12;98602.31;330866;29;18541;-77
2024/01/01 00:12:11;;;;;;;3.90;2.10;;;;;;;8.25;74.65;98615.38;328929;29;4931;-76
2024/01/01 00:12:23;;;;;;;4.10;2.30;;;;;;;8.20;74.88;98614.72;330887;29;16592;-76
2024/01/01 00:12:35;;;;;;;4.97;2.55;;;;;;;8.20;75.06;98606.94;333437;29;4615;-78
2024/01/01 00:12:47;;;;;;;6.25;2.80;;;;;;;8.18;75.00;98611.34;333112;29;5498;-78
2024/01/01 00:12:59;;;;;;;5.63;2.72;;;;;;;8.17;75.27;98607.09;331030;29;16989;-76
2024/01/01 00:13:11;;;;;;;5.43;2.70;;;;;;;8.14;75.17;98610.63;335386;29;4763;-76
2024/01/01 00:13:23;;;;;;;4.93;2.67;;;;;;;8.19;75.03;98613.88;331340;29;5521;-77
2024/01/01 00:13:35;;;;;;;6.07;2.47;;;;;;;8.14;75.06;98609.78;333039;29;5240;-76
2024/01/01 00:13:47;;;;;;;5.60;2.40;;;;;;;8.13;75.29;98613.25;328901;29;4558;-76
2024/01/01 00:13:59;;;;;;;5.95;2.60;;;;;;;8.13;75.27;98608.09;331152;29;5330;-76
2024/01/01 00:14:12;;;;;;;6.35;2.75;;;;;;;8.20;75.33;98612.13;323688;29;4719;-77
2024/01/01 00:14:24;;;;;;;8.60;2.85;;;;;;;8.26;75.08;98611.88;332717;29;17579;-76
2024/01/01 00:14:36;;;;;;;8.82;3.03;;;;;;;8.27;75.11;98616.16;335102;29;5632;-76
2024/01/01 00:14:48;;;;;;;6.35;2.67;;;;;;;8.27;75.01;98605.81;333781;29;12164;-76
2024/01/01 00:15:00;;;;;;;4.93;2.50;;;;;;;8.28;74.75;98607.47;334083;28;17931;-76
2024/01/01 00:15:13;;;;;;;4.88;2.42;;;;;;;8.30;74.68;98604.84;331790;28;5070;-76
2024/01/01 00:15:25;;;;;;;5.20;2.42;;;;;;;8.31;74.59;98615.16;334602;28;18311;-76
2024/01/01 00:15:37;;;;;;;4.22;2.28;;;;;;;8.42;74.76;98614.72;337054;28;4654;-76
2024/01/01 00:15:49;;;;;;;5.40;2.28;;;;;;;8.42;74.48;98616.50;335505;28;18226;-77
2024/01/01 00:16:02;;;;;;;6.05;2.53;;;;;;;8.40;74.34;98612.16;337341;28;4877;-77
2024/01/01 00:16:14;;;;;;;6.40;2.60;;;;;;;8.36;74.57;98613.19;334482;28;13569;-76
2024/01/01 00:16:26;;;;;;;5.43;2.45;;;;;;;8.35;74.44;98608.94;336397;28;4902;-76
2024/01/01 00:16:39;;;;;;;5.90;2.67;;;;;;;8.32;74.51;98614.22;336426;28;4625;-76
2024/01/01 00:16:51;;;;;;;7.68;2.78;;;;;;;8.33;74.79;98609.88;333918;28;7004;-75
2024/01/01 00:17:03;;;;;;;7.38;2.67;;;;;;;8.29;74.81;98614.38;336122;28;4544;-76
2024/01/01 00:17:15;;;;;;;6.50;2.72;;;;;;;8.23;74.93;98609.44;332722;28;16616;-76
2024/01/01 00:17:27;;;;;;;7.00;2.70;;;;;;;8.29;75.00;98611.78;335314;28;4665;-76
2024/01/01 00:17:40;;;;;;;7.75;2.72;;;;;;;8.29;74.74;98609.19;336076;28;5346;-78
2024/01/01 00:17:52;;;;;;;7.22;2.72;;;;;;;8.30;74.77;98616.03;333200;28;18943;-77
2024/01/01 00:18:04;;;;;;;5.72;2.22;;;;;;;8.40;74.47;98606.97;331210;28;4727;-77
2024/01/01 00:18:17;;;;;;;4.97;2.10;;;;;;;8.43;74.41;98615.56;332117;28;17888;-76
2024/01/01 00:18:30;;;;;;;4.53;2.10;;;;;;;8.46;74.49;98605.09;333993;28;13513;-76
2024/01/01 00:18:42;;;;;;;4.47;2.40;;;;;;;8.40;74.21;98606.97;335922;28;5565;-76
2024/01/01 00:18:54;;;;;;;5.28;2.63;;;;;;;8.40;74.39;98612.16;336299;28;4539;-77
2024/01/01 00:19:06;;;;;;;4.63;2.35;;;;;;;8.42;74.36;98608.72;333332;28;17921;-78
2024/01/01 00:19:18;;;;;;;4.32;2.10;;;;;;;8.39;74.35;98610.50;336833;28;5220;-76
2024/01/01 00:19:30;;;;;;;4.53;2.28;;;;;;;8.40;74.22;98608.75;335785;28;4553;-76
2024/01/01 00:19:42;;;;;;;4.18;2.13;;;;;;;8.45;74.21;98618.94;327862;28;18215;-76
2024/01/01 00:19:54;;;;;;;3.97;2.05;;;;;;;8.46;74.19;98610.28;334591;29;5555;-76
2024/01/01 00:20:09;;;;;;;4.72;2.17;;;;;;;8.51;74.03;98613.50;332449;29;4986;-76
2024/01/01 00:20:21;;;;;;;5.43;2.20;;;;;;;8.47;74.29;98611.94;332321;28;12759;-76
2024/01/01 00:20:33;;;;;;;5.65;2.25;;;;;;;8.49;74.38;98613.59;335881;28;5334;-76
2024/01/01 00:20:45;;;;;;;3.90;1.98;;;;;;;8.54;74.21;98608.22;335281;28;5688;-76
2024/01/01 00:20:57;;;;;;;3.35;1.88;;;;;;;8.54;74.08;98613.41;327817;28;18210;-76
2024/01/01 00:21:09;;;;;;;2.63;1.67;;;;;;;8.44;74.15;98609.50;334939;28;4563;-75
2024/01/01 00:21:21;;;;;;;3.28;1.80;;;;;;;8.38;74.37;98608.78;330371;29;16637;-76
2024/01/01 00:21:33;;;;;;;4.78;2.13;;;;;;;8.40;74.60;98601.81;333382;29;4574;-76
2024/01/01 00:21:45;;;;;;;4.72;2.15;;;;;;;8.44;74.28;98606.91;333982;28;4607;-76
2024/01/01 00:21:58;;;;;;;3.45;1.98;;;;;;;8.38;74.44;98610.56;330501;29;17924;-75
2024/01/01 00:22:10;;;;;;;2.88;1.80;;;;;;;8.39;74.69;98609.63;331122;29;5754;-76
2024/01/01 00:22:22;;;;;;;3.00;1.90;;;;;;;8.35;74.77;98608.94;329723;29;18384;-76
2024/01/01 00:22:35;;;;;;;3.40;1.90;;;;;;;8.45;74.57;98613.75;328045;29;4561;-76
2024/01/01 00:22:49;;;;;;;3.97;2.10;;;;;;;8.43;74.69;98610.38;330831;29;13020;-76
2024/01/01 00:23:01;;;;;;;3.45;2.00;;;;;;;8.46;74.65;98610.28;335190;28;5330;-76
2024/01/01 00:23:13;;;;;;;3.03;1.90;;;;;;;8.51;74.47;98605.72;332597;28;10811;-76
2024/01/01 00:23:25;;;;;;;3.65;1.88;;;;;;;8.57;74.24;98619.31;335431;28;4742;-76
2024/01/01 00:23:37;;;;;;;4.63;2.22;;;;;;;8.57;74.31;98615.84;334696;28;13279;-76
2024/01/01 00:23:49;;;;;;;4.47;2.25;;;;;;;8.58;74.46;98620.13;336196;28;4518;-76
2024/01/01 00:24:02;;;;;;;3.20;1.90;;;;;;;8.60;74.08;98618.31;331537;28;5570;-77
2024/01/01 00:24:14;;;;;;;2.85;1.75;;;;;;;8.64;73.99;98619.88;333261;29;18233;-77
2024/01/01 00:24:26;;;;;;;3.67;1.88;;;;;;;8.62;74.33;98619.09;334467;28;5240;-76
2024/01/01 00:24:38;;;;;;;3.90;1.95;;;;;;;8.64;74.02;98619.03;332025;28;18156;-77
2024/01/01 00:24:50;;;;;;;3.35;1.90;;;;;;;8.60;74.66;98620.91;334650;29;5107;-76
2024/01/01 00:25:02;;;;;;;2.75;1.70;;;;;;;8.56;74.73;98617.59;332265;28;13286;-77
2024/01/01 00:25:17;;;;;;;4.40;1.83;;;;;;;8.49;75.06;98620.50;335361;28;17830;-77
2024/01/01 00:25:35;;;;;;;4.82;2.05;;;;;;;8.47;75.80;98625.75;330506;29;17818;-77
2024/01/01 00:25:47;;;;;;;2.63;1.67;;;;;;;8.43;75.75;98620.75;333557;29;18175;-78
2024/01/01 00:25:59;;;;;;;2.28;1.40;;;;;;;8.37;75.92;98622.66;332793;29;18213;-78
2024/01/01 00:26:13;;;;;;;2.53;1.55;;;;;;;8.40;76.08;98622.53;334551;29;4726;-79
2024/01/01 00:26:25;;;;;;;3.60;1.65;;;;;;;8.38;76.11;98613.97;331745;28;18274;-77
2024/01/01 00:26:37;;;;;;;3.38;1.63;;;;;;;8.34;76.14;98612.41;335594;28;4978;-77
2024/01/01 00:26:49;;;;;;;3.85;1.50;;;;;;;8.30;76.73;98615.19;328389;28;17903;-77
2024/01/01 00:27:02;;;;;;;5.55;1.60;;;;;;;8.18;76.87;98629.47;335856;28;4519;-77
2024/01/01 00:27:14;;;;;;;7.55;1.90;;;;;;;8.12;77.17;98611.59;330902;28;17794;-79
2024/01/01 00:27:26;;;;;;;4.63;1.80;;;;;;;8.08;77.33;98620.38;333494;29;5036;-78
2024/01/01 00:27:38;;;;;;;5.22;1.90;;;;;;;8.06;77.72;98617.84;332929;28;19245;-77
2024/01/01 00:27:53;;;;;;;4.60;1.88;;;;;;;8.04;77.85;98609.28;334334;29;5381;-77
2024/01/01 00:28:06;;;;;;;2.22;1.55;;;;;;;8.03;78.16;98617.97;331916;29;18058;-77
2024/01/01 00:28:18;;;;;;;1.90;1.40;;;;;;;8.03;77.88;98606.75;331671;29;4594;-78
2024/01/01 00:28:30;;;;;;;3.03;1.65;;;;;;;8.03;78.09;98614.53;333965;29;4668;-78
2024/01/01 00:28:42;;;;;;;2.92;1.70;;;;;;;8.05;77.50;98617.88;333198;29;5459;-77
2024/01/01 00:28:54;;;;;;;2.90;1.60;;;;;;;8.08;77.70;98612.63;332027;29;18522;-77
2024/01/01 00:29:09;;;;;;;3.13;1.52;;;;;;;8.06;77.71;98627.34;333613;29;4724;-77
2024/01/01 00:29:28;;;;;;;3.63;1.80;;;;;;;8.06;77.85;98619.59;333848;29;17358;-77
2024/01/01 00:29:48;;;;;;;2.92;1.40;;;;;;;8.06;78.21;98619.59;328008;29;17399;-78
2024/01/01 00:30:01;;;;;;;2.92;1.30;;;;;;;8.07;78.34;98608.31;332194;29;17831;-78
2024/01/01 00:30:13;;;;;;;2.10;1.17;;;;;;;8.06;78.53;98612.66;334644;29;4795;-77
2024/01/01 00:30:25;;;;;;;2.55;1.38;;;;;;;8.06;78.41;98617.00;330591;29;17696;-77
2024/01/01 00:30:38;;;;;;;2.03;1.35;;;;;;;8.12;78.73;98611.59;334598;28;5436;-77
2024/01/01 00:30:50;;;;;;;1.73;1.27;;;;;;;8.08;79.18;98612.63;333311;28;17959;-78
2024/01/01 00:31:02;;;;;;;1.60;1.10;;;;;;;8.08;79.11;98625.56;335471;28;4942;-77
2024/01/01 00:31:15;;;;;;;2.80;1.40;;;;;;;8.09;79.04;98616.88;333320;28;4591;-76
2024/01/01 00:31:27;;;;;;;3.30;1.67;;;;;;;8.06;79.21;98611.84;335363;29;4732;-79
2024/01/01 00:31:39;;;;;;;2.40;1.65;;;;;;;8.08;79.41;98620.38;332364;29;4603;-76
2024/01/01 00:31:52;;;;;;;3.30;1.88;;;;;;;8.06;79.55;98622.19;334883;29;4666;-77
2024/01/01 00:32:05;;;;;;;3.80;2.00;;;;;;;8.08;79.71;98621.22;330740;29;12505;-77
2024/01/01 00:32:18;;;;;;;3.72;1.85;;;;;;;8.07;79.53;98618.69;333994;29;6156;-77
2024/01/01 00:32:30;;;;;;;3.70;1.73;;;;;;;8.03;79.05;98619.69;330496;29;18118;-78
2024/01/01 00:32:42;;;;;;;3.88;1.65;;;;;;;8.02;79.21;98620.63;328845;29;5090;-78
2024/01/01 00:32:54;;;;;;;3.00;1.55;;;;;;;8.03;79.11;98623.16;333202;29;5922;-77
2024/01/01 00:33:06;;;;;;;3.58;1.73;;;;;;;8.09;78.97;98615.16;329943;29;18163;-77
2024/01/01 00:33:18;;;;;;;2.78;1.65;;;;;;;8.11;78.79;98609.88;333229;29;4617;-78
2024/01/01 00:33:31;;;;;;;3.33;1.48;;;;;;;8.12;78.92;98616.75;332520;29;5066;-77
2024/01/01 00:33:43;;;;;;;3.30;1.50;;;;;;;8.13;79.20;98618.44;334639;29;4648;-77
2024/01/01 00:33:55;;;;;;;3.00;1.60;;;;;;;8.15;79.12;98616.66;332588;28;16594;-77
2024/01/01 00:34:07;;;;;;;2.53;1.48;;;;;;;8.17;79.21;98614.84;332686;28;4559;-76
2024/01/01 00:34:20;;;;;;;2.58;1.80;;;;;;;8.14;79.26;98615.78;335388;28;5374;-76
2024/01/01 00:34:32;;;;;;;2.90;1.90;;;;;;;8.21;78.76;98624.19;331826;29;17821;-79
2024/01/01 00:34:45;;;;;;;2.55;1.58;;;;;;;8.17;78.64;98620.88;335066;28;4597;-79
2024/01/01 00:34:57;;;;;;;2.72;1.40;;;;;;;8.16;78.60;98613.16;333097;28;18046;-77
2024/01/01 00:35:09;;;;;;;2.80;1.60;;;;;;;8.16;79.05;98623.50;336207;28;4577;-77
2024/01/01 00:35:21;;;;;;;2.33;1.60;;;;;;;8.20;78.83;98612.13;327677;28;17940;-77
2024/01/01 00:35:33;;;;;;;1.55;1.25;;;;;;;8.19;78.94;98613.03;335166;28;4558;-78
2024/01/01 00:35:45;;;;;;;1.75;1.25;;;;;;;8.22;78.96;98614.66;332105;28;18956;-76
2024/01/01 00:35:57;;;;;;;3.42;1.50;;;;;;;8.21;78.82;98616.41;334874;28;6182;-77
2024/01/01 00:36:09;;;;;;;3.80;1.60;;;;;;;8.18;78.65;98621.69;335167;28;4681;-77
2024/01/01 00:36:21;;;;;;;3.63;1.52;;;;;;;8.16;78.85;98619.16;331775;28;17853;-77
2024/01/01 00:36:33;;;;;;;3.05;1.55;;;;;;;8.12;78.56;98614.19;334488;29;4517;-77
2024/01/01 00:36:45;;;;;;;2.58;1.20;;;;;;;8.15;78.92;98614.06;336151;28;18823;-77
2024/01/01 00:36:57;;;;;;;2.28;1.35;;;;;;;8.15;78.95;98616.66;328732;28;18300;-77
2024/01/01 00:37:10;;;;;;;2.53;1.60;;;;;;;8.20;78.37;98618.13;335962;28;5429;-78
2024/01/01 00:37:22;;;;;;;3.42;1.70;;;;;;;8.23;78.09;98624.97;330816;28;5329;-78
2024/01/01 00:37:36;;;;;;;3.38;1.65;;;;;;;8.31;78.08;98607.38;336160;28;5367;-78
2024/01/01 00:37:48;;;;;;;2.67;1.40;;;;;;;8.28;77.56;98611.81;333469;28;19436;-78
2024/01/01 00:38:00;;;;;;;3.47;1.27;;;;;;;8.33;77.27;98608.16;335783;28;5583;-79
2024/01/01 00:38:12;;;;;;;3.17;1.13;;;;;;;8.32;77.25;98618.56;331913;28;16418;-77
2024/01/01 00:38:25;;;;;;;1.65;1.25;;;;;;;8.35;77.13;98615.84;330770;28;4554;-77
2024/01/01 00:38:37;;;;;;;2.05;1.25;;;;;;;8.32;77.21;98611.63;330110;29;4710;-78
2024/01/01 00:38:51;;;;;;;2.20;1.30;;;;;;;8.27;77.70;98611.00;332941;29;4772;-77
2024/01/01 00:39:03;;;;;;;1.98;1.13;;;;;;;8.37;77.42;98614.91;331798;29;17974;-78
2024/01/01 00:39:15;;;;;;;2.25;1.33;;;;;;;8.40;77.49;98612.16;335593;28;5655;-80
2024/01/01 00:39:27;;;;;;;1.67;1.30;;;;;;;8.30;77.47;98605.69;332067;28;18992;-77
2024/01/01 00:39:39;;;;;;;2.00;1.50;;;;;;;8.28;77.86;98617.84;334892;28;5841;-77
2024/01/01 00:39:51;;;;;;;2.28;1.40;;;;;;;8.32;77.77;98614.22;331262;28;17964;-77
2024/01/01 00:40:04;;;;;;;2.50;1.40;;;;;;;8.33;77.81;98610.75;333683;28;4570;-77
2024/01/01 00:40:18;;;;;;;4.60;1.65;;;;;;;8.30;78.17;98616.03;329566;28;18066;-78
2024/01/01 00:40:30;;;;;;;4.30;1.55;;;;;;;8.28;78.25;98611.81;333382;28;5209;-78
2024/01/01 00:40:42;;;;;;;4.00;1.52;;;;;;;8.24;78.32;98610.25;331135;28;18133;-78
2024/01/01 00:40:54;;;;;;;5.82;1.58;;;;;;;8.22;78.75;98618.09;334516;29;5220;-78
2024/01/01 00:41:13;;;;;;;5.50;1.63;;;;;;;8.20;78.59;98615.53;334742;29;5140;-78
2024/01/01 00:41:25;;;;;;;2.45;1.33;;;;;;;8.25;78.50;98619.69;332679;28;17709;-78
2024/01/01 00:41:37;;;;;;;2.75;1.30;;;;;;;8.30;78.46;98616.03;332197;29;11353;-77
2024/01/01 00:41:49;;;;;;;2.85;1.30;;;;;;;8.26;78.89;98618.81;333645;28;5327;-78
2024/01/01 00:42:01;;;;;;;3.13;1.40;;;;;;;8.35;78.39;98605.47;336011;28;4547;-77
2024/01/01 00:42:13;;;;;;;2.55;1.40;;;;;;;8.33;78.07;98597.81;332678;28;17915;-77
2024/01/01 00:42:25;;;;;;;2.55;1.42;;;;;;;8.36;77.62;98609.78;334930;29;4570;-77
2024/01/01 00:42:38;;;;;;;2.42;1.30;;;;;;;8.40;77.38;98612.16;325898;29;17639;-77
2024/01/01 00:42:50;;;;;;;1.63;1.10;;;;;;;8.51;76.82;98618.69;333349;29;4553;-78
2024/01/01 00:43:03;;;;;;;1.25;1.00;;;;;;;8.42;76.85;98612.16;330884;29;12658;-78
2024/01/01 00:43:15;;;;;;;1.38;1.10;;;;;;;8.40;77.40;98619.94;333453;29;4565;-77
2024/01/01 00:43:27;;;;;;;1.27;1.10;;;;;;;8.43;77.01;98618.16;330782;29;4872;-77
2024/01/01 00:43:39;;;;;;;1.38;1.17;;;;;;;8.46;77.56;98620.63;333345;29;4873;-78
2024/01/01 00:43:51;;;;;;;2.05;1.20;;;;;;;8.38;77.98;98616.56;332199;29;4915;-77
2024/01/01 00:44:04;;;;;;;2.20;1.27;;;;;;;8.29;78.94;98614.38;330718;29;17855;-77
2024/01/01 00:44:16;;;;;;;2.40;1.45;;;;;;;8.19;79.82;98615.63;328526;29;4592;-78
2024/01/01 00:44:28;;;;;;;3.75;1.50;;;;;;;8.08;79.95;98615.19;330086;29;16201;-77
2024/01/01 00:44:43;;;;;;;3.88;1.20;;;;;;;7.97;80.48;98624.22;332458;29;4813;-78
2024/01/01 00:44:55;;;;;;;3.50;1.23;;;;;;;7.88;80.52;98624.56;329279;29;17948;-77
2024/01/01 00:45:07;;;;;;;2.67;1.27;;;;;;;7.79;81.25;98614.59;332438;29;5173;-77
2024/01/01 00:45:20;;;;;;;1.60;1.30;;;;;;;7.72;81.79;98620.88;329451;29;18142;-77
2024/01/01 00:45:32;;;;;;;2.05;1.20;;;;;;;7.65;82.04;98619.44;329365;28;6022;-77
2024/01/01 00:45:54;;;;;;;3.78;1.30;;;;;;;7.61;82.50;98621.28;328044;28;17492;-77
2024/01/01 00:46:06;;;;;;;3.95;1.30;;;;;;;7.70;82.33;98614.91;334445;28;4645;-77
2024/01/01 00:46:18;;;;;;;4.47;1.27;;;;;;;7.76;82.11;98620.69;331932;28;13388;-77
2024/01/01 00:46:30;;;;;;;2.90;1.00;;;;;;;7.79;82.20;98619.75;335893;28;4708;-77
2024/01/01 00:46:42;;;;;;;2.35;1.00;;;;;;;7.74;82.22;98622.50;336234;28;5134;-77
2024/01/01 00:46:54;;;;;;;2.10;1.10;;;;;;;7.71;82.48;98619.22;334510;28;17883;-78
2024/01/01 00:47:07;;;;;;;1.55;1.13;;;;;;;7.65;82.86;98622.84;333340;28;5379;-79
2024/01/01 00:47:19;;;;;;;2.67;1.10;;;;;;;7.55;83.48;98617.19;333922;28;13102;-77
2024/01/01 00:47:31;;;;;;;4.05;1.27;;;;;;;7.58;83.38;98617.03;336404;28;4581;-78
2024/01/01 00:47:44;;;;;;;7.07;1.40;;;;;;;7.63;83.06;98614.31;334870;29;4711;-77
2024/01/01 00:47:57;;;;;;;6.25;1.40;;;;;;;7.66;83.38;98618.53;332422;29;17650;-77
2024/01/01 00:48:09;;;;;;;4.75;1.23;;;;;;;7.62;83.32;98617.78;331725;29;13055;-77
2024/01/01 00:48:22;;;;;;;2.78;1.10;;;;;;;7.56;83.19;98623.19;333889;29;4617;-77
2024/01/01 00:48:34;;;;;;;4.13;1.10;;;;;;;7.58;83.28;98619.63;329792;29;5912;-77
2024/01/01 00:48:46;;;;;;;4.23;1.10;;;;;;;7.60;83.63;98629.94;334723;29;4739;-77
2024/01/01 00:48:58;;;;;;;2.72;1.10;;;;;;;7.52;83.60;98629.38;334527;29;5110;-78
2024/01/01 00:49:10;;;;;;;2.05;1.13;;;;;;;7.52;83.39;98617.28;332032;29;18154;-78
2024/01/01 00:49:22;;;;;;;1.77;1.00;;;;;;;7.55;83.25;98617.19;333031;29;5119;-77
2024/01/01 00:49:34;;;;;;;3.03;1.10;;;;;;;7.55;83.42;98627.53;331214;29;5805;-78
2024/01/01 00:49:47;;;;;;;3.15;1.15;;;;;;;7.62;83.21;98616.94;336107;28;5036;-80
2024/01/01 00:50:00;;;;;;;2.40;1.20;;;;;;;7.63;83.28;98618.66;335874;29;4707;-79
2024/01/01 00:50:12;;;;;;;1.75;1.10;;;;;;;7.67;83.57;98612.47;331764;29;17852;-77
2024/01/01 00:50:24;;;;;;;2.17;1.25;;;;;;;7.67;83.67;98621.06;335141;28;5808;-77
2024/01/01 00:50:36;;;;;;;4.47;1.65;;;;;;;7.66;84.10;98618.53;334467;28;18121;-78
2024/01/01 00:50:48;;;;;;;4.70;1.65;;;;;;;7.65;84.07;98619.44;337064;28;5461;-78
2024/01/01 00:51:01;;;;;;;4.18;1.63;;;;;;;7.68;84.46;98616.72;334049;28;17995;-78
2024/01/01 00:51:13;;;;;;;3.70;1.67;;;;;;;7.64;84.28;98622.91;335658;28;5915;-79
2024/01/01 00:51:25;;;;;;;3.40;1.67;;;;;;;7.66;84.10;98623.69;327690;29;6088;-79
2024/01/01 00:51:37;;;;;;;2.65;1.42;;;;;;;7.65;84.00;98627.19;334738;29;5512;-79
2024/01/01 00:51:49;;;;;;;2.30;1.38;;;;;;;7.68;84.03;98620.13;334896;29;4543;-79
2024/01/01 00:52:01;;;;;;;2.42;1.52;;;;;;;7.67;84.28;98622.81;329658;29;4657;-78
2024/01/01 00:52:13;;;;;;;3.35;1.60;;;;;;;7.58;85.01;98617.03;334913;29;5795;-78
2024/01/01 00:52:25;;;;;;;5.25;1.65;;;;;;;7.68;84.63;98627.06;335966;28;4561;-78
2024/01/01 00:52:37;;;;;;;4.55;1.30;;;;;;;7.69;83.93;98618.41;337358;28;4599;-78
2024/01/01 00:52:49;;;;;;;3.75;1.30;;;;;;;7.70;83.33;98625.25;337470;28;5120;-79
2024/01/01 00:53:01;;;;;;;1.90;1.20;;;;;;;7.68;83.06;98616.72;334448;28;17976;-78
2024/01/01 00:53:13;;;;;;;2.08;1.30;;;;;;;7.62;83.40;98616.94;337573;28;4732;-79
2024/01/01 00:53:25;;;;;;;1.75;1.20;;;;;;;7.67;82.89;98623.66;333618;28;11663;-78
2024/01/01 00:53:37;;;;;;;1.50;1.00;;;;;;;7.65;82.94;98622.03;335490;28;5430;-79
2024/01/01 00:53:49;;;;;;;1.60;1.00;;;;;;;7.66;83.29;98618.53;334999;29;5934;-77
2024/01/01 00:54:01;;;;;;;2.70;1.10;;;;;;;7.74;83.17;98621.66;330922;29;17950;-78
2024/01/01 00:54:13;;;;;;;3.33;1.13;;;;;;;7.73;83.28;98620.00;331394;28;4544;-78
2024/01/01 00:54:28;;;;;;;3.53;1.30;;;;;;;7.67;83.71;98615.88;330509;28;4678;-79
2024/01/01 00:54:40;;;;;;;2.72;1.50;;;;;;;7.72;83.54;98615.69;332666;29;18214;-77
2024/01/01 00:54:52;;;;;;;2.80;1.30;;;;;;;7.72;83.82;98619.13;332392;29;19419;-77
2024/01/01 00:55:05;;;;;;;2.33;1.20;;;;;;;7.83;83.88;98620.47;336036;29;4526;-77
2024/01/01 00:55:17;;;;;;;1.77;1.13;;;;;;;7.73;83.63;98625.16;331615;29;18085;-80
2024/01/01 00:55:32;;;;;;;2.92;1.20;;;;;;;7.69;83.86;98623.59;331353;29;18035;-76
2024/01/01 00:55:45;;;;;;;2.78;1.15;;;;;;;7.68;83.98;98622.72;330271;29;5076;-77
2024/01/01 00:55:57;;;;;;;2.70;1.20;;;;;;;7.69;84.53;98623.59;332012;29;16284;-79
2024/01/01 00:56:09;;;;;;;3.30;1.60;;;;;;;7.67;84.54;98620.22;335111;28;4539;-77
2024/01/01 00:56:21;;;;;;;3.55;1.60;;;;;;;7.67;84.58;98617.63;332797;28;17110;-77
2024/01/01 00:56:33;;;;;;;3.28;1.48;;;;;;;7.59;84.68;98618.75;336386;28;4599;-77
2024/01/01 00:56:46;;;;;;;4.03;1.52;;;;;;;7.55;84.98;98622.34;336553;28;5063;-77
2024/01/01 00:56:58;;;;;;;3.75;1.50;;;;;;;7.53;85.11;98618.97;333850;28;17594;-77
2024/01/01 00:57:11;;;;;;;2.28;1.40;;;;;;;7.53;85.27;98621.56;335347;28;4820;-78
2024/01/01 00:57:23;;;;;;;1.85;1.27;;;;;;;7.57;85.17;98622.31;329198;28;4787;-78
2024/01/01 00:57:35;;;;;;;2.45;1.08;;;;;;;7.58;85.01;98622.22;335477;28;4826;-78
2024/01/01 00:57:47;;;;;;;4.50;1.30;;;;;;;7.59;85.23;98629.09;332314;28;14258;-78
2024/01/01 00:57:59;;;;;;;3.95;1.27;;;;;;;7.62;84.95;98622.13;334865;28;4905;-80
2024/01/01 00:58:11;;;;;;;4.80;1.27;;;;;;;7.59;85.14;98623.91;332845;29;9244;-78
2024/01/01 00:58:23;;;;;;;3.60;1.17;;;;;;;7.63;85.00;98618.66;331853;28;18899;-79
2024/01/01 00:58:35;;;;;;;3.75;1.33;;;;;;;7.68;84.61;98617.56;329915;29;5220;-78
2024/01/01 00:58:47;;;;;;;2.22;1.30;;;;;;;7.69;84.51;98619.25;332190;29;18334;-77
2024/01/01 00:58:59;;;;;;;1.85;1.20;;;;;;;7.74;84.40;98621.66;334773;29;4508;-77
2024/01/01 00:59:11;;;;;;;1.92;1.08;;;;;;;7.72;84.47;98623.47;334674;29;4685;-77
2024/01/01 00:59:24;;;;;;;2.00;1.02;;;;;;;7.70;84.09;98615.75;332378;28;18124;-77
2024/01/01 00:59:37;;;;;;;1.88;1.10;;;;;;;7.68;84.14;98622.72;333403;29;18816;-77
2024/01/01 00:59:49;;;;;;;2.00;1.23;;;;;;;7.71;84.54;98617.44;335870;29;5288;-77
2024/01/01 01:00:02;;;;;;;2.20;1.27;;;;;;;7.74;84.42;98616.50;335805;29;4993;-78
2024/01/01 01:00:14;;;;;;;2.08;1.10;;;;;;;7.73;84.40;98614.81;327545;29;17717;-77
2024/01/01 01:00:27;;;;;;;1.50;1.00;;;;;;;7.74;84.34;98616.50;334364;29;5886;-78
2024/01/01 01:00:39;;;;;;;1.58;1.00;;;;;;;7.74;84.13;98617.31;333173;28;18164;-78